Time;durP1;ratioP1;P1;durP2;ratioP2;P2;SDS_P1;SDS_P2;PMS_P1;PMS_P2;Temp;Humidity;BMP_temperature;BMP_pressure;BME280_temperature;BME280_humidity;BME280_pressure;Samples;Min_cycle;Max_cycle;Signal;HPM_P1;HPM_P2
2022/12/21 00:02:09;;;;;;;23.38;8.65;;;;;;;-3.37;73.96;99633.34;5091093;28;20039;-53
2022/12/21 00:04:35;;;;;;;17.05;7.22;;;;;;;-3.33;73.69;99631.72;5098498;28;20035;-50
2022/12/21 00:07:01;;;;;;;20.30;7.57;;;;;;;-3.25;74.21;99638.69;5102922;28;20499;-53
2022/12/21 00:09:27;;;;;;;21.65;8.43;;;;;;;-3.24;73.79;99635.28;5111464;28;20035;-51
2022/12/21 00:11:53;;;;;;;17.40;7.90;;;;;;;-3.26;73.40;99614.09;5073913;28;20051;-49
2022/12/21 00:14:19;;;;;;;17.02;7.22;;;;;;;-3.00;73.61;99648.50;5102405;28;20055;-54
2022/12/21 00:16:45;;;;;;;19.30;7.35;;;;;;;-2.96;73.63;99644.31;5090817;28;20157;-49
2022/12/21 00:19:13;;;;;;;19.92;7.47;;;;;;;-2.95;73.48;99645.19;5117787;27;20035;-51
2022/12/21 00:21:39;;;;;;;22.63;7.80;;;;;;;-2.94;73.65;99636.72;5097118;28;20457;-51
2022/12/21 00:24:05;;;;;;;18.73;7.20;;;;;;;-2.90;73.39;99641.91;5101221;28;20046;-49
2022/12/21 00:26:34;;;;;;;18.45;7.63;;;;;;;-2.82;73.19;99642.00;5106031;28;20046;-50
2022/12/21 00:29:00;;;;;;;21.25;7.85;;;;;;;-2.86;72.86;99651.28;5098457;28;20419;-51
2022/12/21 00:31:32;;;;;;;18.67;7.95;;;;;;;-2.90;72.99;99641.03;5098071;27;20088;-52
2022/12/21 00:33:58;;;;;;;18.88;7.55;;;;;;;-2.84;72.93;99633.53;5093314;28;20054;-48
2022/12/21 00:36:26;;;;;;;19.52;7.20;;;;;;;-2.81;73.03;99636.09;5086919;28;20043;-49
2022/12/21 00:38:52;;;;;;;17.52;6.97;;;;;;;-2.79;72.82;99639.56;5086915;28;20036;-49
2022/12/21 00:41:22;;;;;;;21.60;7.93;;;;;;;-2.71;73.12;99637.97;5104092;28;20108;-50
2022/12/21 00:43:49;;;;;;;18.52;7.35;;;;;;;-2.80;73.01;99614.94;5086869;28;20040;-49
2022/12/21 00:46:15;;;;;;;16.23;7.00;;;;;;;-2.63;72.70;99649.16;5099933;28;20096;-52
2022/12/21 00:48:43;;;;;;;17.23;7.32;;;;;;;-2.65;73.02;99644.03;5098737;28;21402;-49
2022/12/21 00:51:11;;;;;;;16.98;7.55;;;;;;;-2.63;72.55;99634.75;5055990;28;20036;-49
2022/12/21 00:53:37;;;;;;;20.08;7.78;;;;;;;-2.69;72.33;99634.66;5078538;28;20062;-51
2022/12/21 00:56:06;;;;;;;20.63;8.20;;;;;;;-2.75;72.45;99631.13;5088207;28;20578;-53
2022/12/21 00:58:33;;;;;;;18.63;7.88;;;;;;;-2.85;72.26;99635.19;5107565;28;20060;-53
2022/12/21 01:01:00;;;;;;;21.10;8.02;;;;;;;-2.83;72.55;99636.09;5099790;28;20189;-54
2022/12/21 01:03:26;;;;;;;18.92;7.30;;;;;;;-2.82;72.45;99634.38;5104740;28;20048;-48
2022/12/21 01:05:54;;;;;;;19.10;8.07;;;;;;;-2.81;72.39;99628.47;5100371;28;20051;-49
2022/12/21 01:08:21;;;;;;;19.58;7.47;;;;;;;-2.83;72.30;99633.56;5108430;28;20039;-49
2022/12/21 01:10:47;;;;;;;22.48;8.63;;;;;;;-2.82;72.64;99632.69;5102522;28;20044;-49
2022/12/21 01:13:15;;;;;;;20.83;8.13;;;;;;;-2.97;72.24;99601.03;5059764;28;20063;-54
2022/12/21 01:15:44;;;;;;;21.73;8.18;;;;;;;-2.90;72.08;99607.97;5082912;28;20118;-51
2022/12/21 01:18:11;;;;;;;22.50;8.25;;;;;;;-2.72;72.49;99636.28;5110722;28;20043;-50
2022/12/21 01:20:55;;;;;;;20.77;8.18;;;;;;;-3.03;72.14;99592.47;5102559;28;20507;-51
2022/12/21 01:23:22;;;;;;;28.25;9.25;;;;;;;-2.97;72.28;99612.06;5083961;28;20084;-53
2022/12/21 01:25:48;;;;;;;23.23;8.98;;;;;;;-3.14;72.33;99588.88;5093877;28;20041;-51
2022/12/21 01:28:16;;;;;;;22.40;9.43;;;;;;;-2.78;71.95;99654.84;5111921;27;20039;-47
2022/12/21 01:30:42;;;;;;;25.70;9.15;;;;;;;-2.77;72.40;99651.44;5083580;28;20043;-51
2022/12/21 01:33:16;;;;;;;27.33;9.18;;;;;;;-2.76;72.23;99649.75;5071391;28;20048;-51
2022/12/21 01:35:43;;;;;;;23.75;9.90;;;;;;;-2.74;72.26;99648.13;5094701;28;20062;-51
2022/12/21 01:38:10;;;;;;;21.80;9.25;;;;;;;-2.74;72.04;99655.75;5067753;28;20036;-51
2022/12/21 01:40:36;;;;;;;25.70;9.52;;;;;;;-2.74;72.41;99653.22;5080210;28;20040;-49
2022/12/21 01:43:16;;;;;;;22.08;9.68;;;;;;;-2.73;72.55;99657.47;5089637;28;20481;-51
2022/12/21 01:45:42;;;;;;;23.83;8.63;;;;;;;-2.74;72.26;99654.06;5085657;28;21955;-48
2022/12/21 01:48:14;;;;;;;19.60;8.70;;;;;;;-2.75;72.46;99652.34;5104345;28;20039;-53
2022/12/21 01:50:52;;;;;;;23.20;7.93;;;;;;;-2.72;72.30;99659.19;5087709;28;20043;-51
2022/12/21 01:53:33;;;;;;;20.70;8.27;;;;;;;-2.72;72.40;99657.47;5097621;28;20044;-50
2022/12/21 01:56:03;;;;;;;22.27;8.88;;;;;;;-2.71;72.40;99656.66;5079815;28;20039;-56
2022/12/21 01:58:29;;;;;;;22.90;8.75;;;;;;;-2.70;72.13;99650.75;5071594;28;20412;-53
2022/12/21 02:00:58;;;;;;;19.52;8.10;;;;;;;-2.67;72.36;99652.50;5077272;28;20036;-49
2022/12/21 02:03:29;;;;;;;20.70;9.05;;;;;;;-2.64;72.26;99643.22;5088510;28;20036;-51
2022/12/21 02:06:17;;;;;;;23.45;9.30;;;;;;;-2.57;72.03;99652.69;5101766;28;20078;-54
2022/12/21 02:08:43;;;;;;;22.55;9.15;;;;;;;-2.55;72.05;99652.69;5097406;28;20039;-51
2022/12/21 02:11:10;;;;;;;17.70;7.75;;;;;;;-2.61;72.06;99627.13;5091925;28;20065;-51
2022/12/21 02:13:36;;;;;;;25.30;8.68;;;;;;;-2.48;72.13;99643.47;5104684;28;20036;-52
2022/12/21 02:16:02;;;;;;;24.48;9.15;;;;;;;-2.49;72.32;99650.25;5094871;28;20058;-51
2022/12/21 02:18:36;;;;;;;26.52;9.48;;;;;;;-2.69;72.06;99609.22;5088193;28;20035;-53
2022/12/21 02:21:40;;;;;;;24.05;9.13;;;;;;;-2.50;72.23;99635.81;5102634;28;20035;-52
2022/12/21 02:24:28;;;;;;;20.40;8.88;;;;;;;-2.48;72.49;99638.38;5084397;28;20040;-50
2022/12/21 02:27:09;;;;;;;23.70;9.23;;;;;;;-2.43;72.27;99631.69;5103717;28;20044;-52
2022/12/21 02:29:44;;;;;;;23.73;9.68;;;;;;;-2.44;72.35;99615.56;5094032;28;20040;-51
2022/12/21 02:32:31;;;;;;;21.45;8.40;;;;;;;-2.39;72.07;99618.16;5087832;28;20043;-50
2022/12/21 02:35:05;;;;;;;25.95;9.45;;;;;;;-2.38;71.96;99620.75;5064508;28;20051;-51
2022/12/21 02:37:44;;;;;;;23.10;8.57;;;;;;;-2.37;72.12;99617.38;5091762;28;20051;-49
2022/12/21 02:40:18;;;;;;;23.70;8.60;;;;;;;-2.34;72.13;99626.75;5087284;28;20114;-51
2022/12/21 02:46:12;;;;;;;25.08;8.35;;;;;;;-2.38;71.82;99636.03;5073425;28;20040;-48
2022/12/21 02:49:03;;;;;;;23.60;9.73;;;;;;;-2.38;71.89;99637.72;5093760;28;20130;-52
2022/12/21 02:51:34;;;;;;;;;;;;;;;-2.38;71.87;99630.94;5080371;28;20039;-50
2022/12/21 02:54:01;;;;;;;29.73;7.72;;;;;;;-2.40;71.59;99634.28;5096070;28;19915;-49
2022/12/21 02:56:28;;;;;;;25.08;8.63;;;;;;;-2.53;71.61;99601.84;5067789;28;20048;-51
2022/12/21 02:58:56;;;;;;;19.23;9.45;;;;;;;-2.36;71.55;99620.78;5098725;28;20102;-50
2022/12/21 03:01:34;;;;;;;25.02;9.27;;;;;;;-2.40;71.77;99614.75;5098828;28;20107;-52
2022/12/21 03:04:10;;;;;;;26.38;8.98;;;;;;;-2.36;71.78;99625.88;5073347;28;20466;-50
2022/12/21 03:06:53;;;;;;;23.17;8.75;;;;;;;-2.41;71.78;99614.75;5093561;28;20535;-52
2022/12/21 03:09:38;;;;;;;22.98;8.70;;;;;;;-2.46;71.71;99627.38;5082743;28;20089;-51
2022/12/21 03:12:13;;;;;;;26.50;9.32;;;;;;;-2.65;72.15;99592.28;5101883;28;20157;-51
2022/12/21 03:15:01;;;;;;;25.58;9.05;;;;;;;-2.43;72.19;99617.28;5086278;28;20482;-55
2022/12/21 03:17:45;;;;;;;18.80;8.93;;;;;;;-2.36;72.39;99624.19;5075353;28;20189;-50
2022/12/21 03:20:29;;;;;;;23.90;9.70;;;;;;;-2.38;72.51;99615.66;5087082;28;20032;-50
2022/12/21 03:23:24;;;;;;;18.95;7.72;;;;;;;-2.43;72.23;99612.19;5105466;28;20036;-51
2022/12/21 03:26:02;;;;;;;21.65;8.82;;;;;;;-2.64;72.47;99607.59;5099170;28;20524;-52
2022/12/21 03:28:34;;;;;;;21.98;7.82;;;;;;;-2.72;72.95;99610.84;5073661;28;20040;-54
2022/12/21 03:31:05;;;;;;;19.77;8.23;;;;;;;-3.00;73.03;99584.94;5086685;28;20423;-51
2022/12/21 03:33:34;;;;;;;17.33;8.18;;;;;;;-3.18;73.16;99561.69;5112435;27;20043;-50
2022/12/21 03:36:01;;;;;;;18.92;8.13;;;;;;;-2.76;73.16;99619.25;5087580;28;20036;-52
2022/12/21 03:38:33;;;;;;;13.13;6.65;;;;;;;-2.91;73.18;99609.66;5072318;28;20134;-49
2022/12/21 03:41:01;;;;;;;21.55;8.63;;;;;;;-2.91;73.59;99606.25;5101729;28;20042;-49
2022/12/21 03:43:33;;;;;;;16.88;8.93;;;;;;;-3.00;73.86;99604.41;5090192;28;20073;-50
2022/12/21 03:46:34;;;;;;;21.88;8.38;;;;;;;-3.00;74.09;99614.59;5095793;28;20028;-50
2022/12/21 03:49:05;;;;;;;18.67;8.75;;;;;;;-2.86;74.04;99617.38;5081631;28;20074;-50
2022/12/21 03:51:39;;;;;;;21.35;8.48;;;;;;;-2.94;74.08;99601.13;5104219;28;20499;-53
2022/12/21 03:54:43;;;;;;;21.80;8.48;;;;;;;-2.97;74.35;99603.59;5089260;28;20127;-55
2022/12/21 03:57:09;;;;;;;23.55;9.13;;;;;;;-3.02;74.24;99603.50;5098939;28;20036;-53
2022/12/21 03:59:41;;;;;;;20.10;9.20;;;;;;;-3.03;74.32;99596.72;5085488;28;20109;-52
2022/12/21 04:02:19;;;;;;;19.20;8.63;;;;;;;-2.94;74.37;99601.13;5107693;28;20032;-50
2022/12/21 04:05:19;;;;;;;19.08;8.43;;;;;;;-3.01;74.78;99595.91;5109610;28;20039;-55
2022/12/21 04:07:47;;;;;;;23.88;9.77;;;;;;;-3.06;74.88;99594.97;5057893;28;20430;-56
2022/12/21 04:10:15;;;;;;;20.83;9.52;;;;;;;-3.05;75.14;99591.63;5110062;28;20067;-54
2022/12/21 04:12:41;;;;;;;17.13;8.15;;;;;;;-3.05;75.10;99590.75;5071674;28;20047;-53
2022/12/21 04:18:14;;;;;;;13.82;6.60;;;;;;;-3.17;75.82;99582.88;5098130;28;20035;-54
2022/12/21 04:20:40;;;;;;;13.57;7.28;;;;;;;-3.27;75.90;99589.50;5110051;28;20571;-53
2022/12/21 04:28:35;;;;;;;16.80;7.13;;;;;;;-3.29;76.18;99583.50;5091666;28;20089;-52
2022/12/21 04:31:01;;;;;;;17.35;8.55;;;;;;;-3.31;76.59;99576.69;5087161;28;20048;-50
2022/12/21 04:33:28;;;;;;;20.95;9.07;;;;;;;-3.23;76.70;99573.47;5093138;28;20043;-54
2022/12/21 04:38:41;;;;;;;19.08;7.20;;;;;;;-3.06;76.64;99577.19;5075930;28;20131;-54
2022/12/21 04:41:07;;;;;;;18.95;8.95;;;;;;;-3.04;76.64;99582.31;5091127;28;20032;-51
2022/12/21 04:43:38;;;;;;;21.65;7.53;;;;;;;-2.97;76.60;99594.28;5096590;28;20051;-53
2022/12/21 04:46:06;;;;;;;17.25;8.60;;;;;;;-2.99;76.79;99593.41;5102652;28;20503;-49
2022/12/21 04:48:33;;;;;;;18.52;8.02;;;;;;;-3.17;76.59;99553.25;5101892;28;20065;-48
2022/12/21 04:51:07;;;;;;;21.45;8.07;;;;;;;-2.99;76.98;99593.41;5071402;28;20051;-49
2022/12/21 04:53:34;;;;;;;21.90;8.63;;;;;;;-2.89;76.82;99596.97;5099469;28;20530;-53
2022/12/21 04:56:00;;;;;;;21.45;8.68;;;;;;;-2.75;76.91;99596.38;5101336;28;20036;-54
2022/12/21 04:58:25;;;;;;;16.20;7.57;;;;;;;-2.75;76.61;99598.06;5092115;28;20109;-49
2022/12/21 05:00:51;;;;;;;25.48;8.30;;;;;;;-2.84;76.91;99593.69;5088675;28;21279;-51
2022/12/21 05:03:19;;;;;;;17.60;8.95;;;;;;;-2.79;76.79;99593.75;5091697;28;20088;-48
2022/12/21 05:05:45;;;;;;;18.27;8.68;;;;;;;-2.62;76.53;99621.19;5088631;28;20077;-50
2022/12/21 05:08:12;;;;;;;17.95;7.72;;;;;;;-2.89;76.50;99571.53;5088096;28;20067;-49
2022/12/21 05:10:40;;;;;;;16.45;8.48;;;;;;;-2.81;76.79;99600.50;5085835;28;20058;-52
2022/12/21 05:13:06;;;;;;;20.58;8.95;;;;;;;-3.04;76.74;99573.00;5100848;28;20043;-52
2022/12/21 05:15:36;;;;;;;22.15;9.30;;;;;;;-2.75;77.01;99610.78;5099359;28;20043;-52
2022/12/21 05:18:02;;;;;;;19.75;8.95;;;;;;;-2.91;76.78;99579.13;5108527;27;20237;-51
2022/12/21 05:20:28;;;;;;;23.40;9.75;;;;;;;-2.93;77.16;99598.59;5106042;28;20127;-50
2022/12/21 05:22:54;;;;;;;26.80;10.38;;;;;;;-2.76;77.16;99619.25;5084078;28;20513;-52
2022/12/21 05:25:20;;;;;;;23.25;9.85;;;;;;;-2.61;77.38;99629.69;5094805;28;20036;-50
2022/12/21 05:27:46;;;;;;;23.42;8.75;;;;;;;-2.55;77.21;99624.69;5097827;28;20044;-56
2022/12/21 05:30:12;;;;;;;20.70;9.77;;;;;;;-2.69;77.30;99585.44;5092993;28;20187;-59
2022/12/21 05:32:38;;;;;;;22.08;9.40;;;;;;;-2.48;76.95;99606.16;5092163;28;20059;-53
2022/12/21 05:35:04;;;;;;;23.48;10.52;;;;;;;-2.56;77.05;99615.34;5092038;28;20106;-56
2022/12/21 05:37:30;;;;;;;19.85;8.38;;;;;;;-2.59;77.05;99617.84;5119506;27;20036;-54
2022/12/21 05:39:56;;;;;;;19.70;8.63;;;;;;;-2.69;77.13;99619.38;5089205;28;20081;-54
2022/12/21 05:42:22;;;;;;;22.50;9.43;;;;;;;-2.71;77.36;99621.03;5095952;28;20054;-52
2022/12/21 05:44:48;;;;;;;21.08;8.98;;;;;;;-2.78;77.56;99616.69;5097291;28;20039;-55
2022/12/21 05:47:14;;;;;;;22.35;9.63;;;;;;;-2.76;77.54;99616.69;5095087;28;20127;-57
2022/12/21 05:49:40;;;;;;;19.30;9.27;;;;;;;-2.79;77.48;99614.97;5113498;27;20197;-54
2022/12/21 05:52:06;;;;;;;13.02;7.03;;;;;;;-2.81;77.45;99595.41;5092389;28;20126;-57
2022/12/21 05:54:32;;;;;;;19.73;9.05;;;;;;;-2.76;77.59;99611.59;5092946;28;20050;-55
2022/12/21 05:56:58;;;;;;;20.60;9.40;;;;;;;-2.67;78.11;99620.25;5094438;28;20044;-56
2022/12/21 05:59:24;;;;;;;28.95;10.02;;;;;;;-2.64;77.48;99622.00;5097875;28;20153;-56
2022/12/21 06:01:50;;;;;;;26.00;9.80;;;;;;;-2.67;77.65;99616.88;5096996;28;20039;-56
2022/12/21 06:04:16;;;;;;;19.02;9.38;;;;;;;-2.79;77.62;99588.66;5093775;28;20523;-56
2022/12/21 06:06:42;;;;;;;25.27;10.15;;;;;;;-2.77;77.59;99585.31;5090332;28;20040;-58
2022/12/21 06:09:08;;;;;;;24.25;10.15;;;;;;;-2.61;77.51;99614.41;5078034;28;20567;-54
2022/12/21 06:11:33;;;;;;;21.92;9.55;;;;;;;-2.76;77.49;99599.75;5093663;28;20040;-55
2022/12/21 06:13:59;;;;;;;24.60;9.32;;;;;;;-2.75;77.68;99595.50;5092756;28;20530;-56
2022/12/21 06:16:27;;;;;;;22.77;10.18;;;;;;;-2.67;77.59;99627.06;5076705;28;20036;-56
2022/12/21 06:18:55;;;;;;;23.47;9.53;;;;;;;-2.61;77.62;99637.31;5096122;28;20529;-50
2022/12/21 06:21:22;;;;;;;23.02;9.90;;;;;;;-2.92;77.53;99584.19;5097380;28;20035;-50
2022/12/21 06:23:48;;;;;;;23.50;10.80;;;;;;;-2.64;78.04;99634.72;5091428;28;20515;-54
2022/12/21 06:26:16;;;;;;;21.15;10.15;;;;;;;-2.51;77.78;99630.72;5075080;28;20052;-54
2022/12/21 06:28:47;;;;;;;23.45;10.20;;;;;;;-2.56;77.88;99634.03;5078707;28;20074;-48
2022/12/21 06:31:13;;;;;;;26.40;10.73;;;;;;;-2.62;77.94;99641.53;5110525;28;20047;-49
2022/12/21 06:33:39;;;;;;;22.70;9.05;;;;;;;-2.60;78.28;99636.50;5093824;28;20032;-53
2022/12/21 06:36:07;;;;;;;22.90;9.30;;;;;;;-2.59;78.38;99641.63;5093052;28;20035;-53
2022/12/21 06:38:33;;;;;;;14.55;6.82;;;;;;;-2.71;78.43;99640.53;5095434;28;20108;-56
2022/12/21 06:41:01;;;;;;;12.32;4.97;;;;;;;-2.87;79.11;99631.75;5091379;28;20135;-56
2022/12/21 06:43:29;;;;;;;21.65;9.10;;;;;;;-2.87;79.63;99628.34;5092280;28;20161;-55
2022/12/21 06:45:57;;;;;;;20.95;8.55;;;;;;;-3.07;79.72;99603.44;5094442;28;20039;-55
2022/12/21 06:48:25;;;;;;;22.00;8.18;;;;;;;-3.00;79.75;99627.28;5098248;28;20044;-57
2022/12/21 06:50:59;;;;;;;20.10;8.93;;;;;;;-3.03;80.05;99637.38;5091924;28;20050;-54
2022/12/21 06:53:29;;;;;;;24.58;10.00;;;;;;;-3.09;80.50;99632.22;5091718;28;20487;-54
2022/12/21 06:56:06;;;;;;;25.38;9.77;;;;;;;-3.17;80.86;99634.59;5093224;28;20116;-52
2022/12/21 06:58:33;;;;;;;26.33;9.82;;;;;;;-3.13;81.29;99628.75;5096475;28;20051;-51
2022/12/21 07:01:10;;;;;;;19.23;8.85;;;;;;;-3.03;81.09;99638.25;5120425;28;20050;-55
2022/12/21 07:03:36;;;;;;;15.93;6.72;;;;;;;-3.01;81.23;99641.69;5094257;28;20040;-54
2022/12/21 07:06:03;;;;;;;21.90;9.52;;;;;;;-2.96;81.21;99643.47;5073720;28;20048;-53
2022/12/21 07:08:29;;;;;;;19.92;8.85;;;;;;;-2.91;81.14;99644.41;5095887;28;20036;-51
2022/12/21 07:11:00;;;;;;;24.42;9.93;;;;;;;-2.80;81.59;99650.53;5091657;28;20072;-54
2022/12/21 07:13:26;;;;;;;32.05;8.93;;;;;;;-2.86;81.19;99617.38;5093044;28;20036;-53
2022/12/21 07:15:52;;;;;;;29.52;9.52;;;;;;;-2.76;81.11;99648.06;5097280;28;20117;-53
2022/12/21 07:18:19;;;;;;;20.63;8.82;;;;;;;-2.79;81.57;99655.66;5092825;28;20499;-54
2022/12/21 07:20:45;;;;;;;22.40;8.32;;;;;;;-2.81;81.52;99656.47;5099920;28;20082;-54
2022/12/21 07:23:11;;;;;;;24.02;9.95;;;;;;;-2.91;81.51;99645.25;5091268;28;20534;-53
2022/12/21 07:25:37;;;;;;;20.48;8.52;;;;;;;-2.84;81.96;99659.81;5090636;28;20503;-56
2022/12/21 07:28:03;;;;;;;22.08;9.30;;;;;;;-2.83;82.11;99648.81;5081218;28;20036;-54
2022/12/21 07:30:30;;;;;;;23.38;8.82;;;;;;;-2.73;81.93;99649.84;5096535;28;20089;-57
2022/12/21 07:32:56;;;;;;;25.48;10.23;;;;;;;-2.65;81.89;99648.28;5103042;28;20040;-53
2022/12/21 07:35:23;;;;;;;23.10;9.23;;;;;;;-2.87;81.91;99608.00;5090308;27;20138;-52
2022/12/21 07:37:50;;;;;;;29.90;9.23;;;;;;;-2.77;81.48;99620.06;5081395;28;20086;-53
2022/12/21 07:40:17;;;;;;;24.98;9.95;;;;;;;-2.56;81.29;99650.97;5096374;28;20630;-51
2022/12/21 07:42:45;;;;;;;19.77;9.10;;;;;;;-2.59;81.02;99648.38;5115320;27;20047;-50
2022/12/21 07:45:37;;;;;;;23.42;9.90;;;;;;;-2.62;80.97;99649.16;5092135;27;20040;-55
2022/12/21 07:48:04;;;;;;;23.50;10.27;;;;;;;-2.47;81.27;99652.84;5110761;27;20529;-54
2022/12/21 07:50:31;;;;;;;25.92;10.18;;;;;;;-2.45;80.60;99643.53;5094462;28;20522;-56
2022/12/21 07:52:58;;;;;;;25.25;9.65;;;;;;;-2.39;80.59;99641.09;5110392;27;20034;-51
2022/12/21 07:55:25;;;;;;;21.02;9.55;;;;;;;-2.40;80.23;99644.44;5095182;28;20039;-54
2022/12/21 07:57:52;;;;;;;19.65;8.48;;;;;;;-2.43;80.31;99632.53;5092849;28;20024;-55
2022/12/21 08:00:22;;;;;;;21.60;8.32;;;;;;;-2.41;80.55;99640.22;5096144;28;20051;-54
2022/12/21 08:02:48;;;;;;;15.65;6.28;;;;;;;-2.43;80.08;99634.22;5094542;28;20036;-55
2022/12/21 08:05:14;;;;;;;19.50;7.53;;;;;;;-2.67;79.83;99609.25;5081380;28;20050;-54
2022/12/21 08:07:40;;;;;;;15.90;7.05;;;;;;;-2.63;80.11;99631.34;5097992;28;20500;-54
2022/12/21 08:10:06;;;;;;;14.23;6.10;;;;;;;-2.62;80.12;99635.63;5095548;28;20039;-54
2022/12/21 08:12:32;;;;;;;17.73;7.88;;;;;;;-2.68;80.10;99635.50;5091529;28;20047;-58
2022/12/21 08:14:59;;;;;;;22.20;7.95;;;;;;;-2.87;80.12;99597.84;5123554;27;20492;-53
2022/12/21 08:17:25;;;;;;;20.38;7.63;;;;;;;-2.66;80.31;99627.06;5095228;28;20484;-53
2022/12/21 08:19:51;;;;;;;22.52;8.98;;;;;;;-2.58;80.16;99637.38;5099904;28;20726;-54
2022/12/21 08:22:16;;;;;;;19.70;7.85;;;;;;;-2.63;80.30;99631.34;5094368;28;20050;-53
2022/12/21 08:24:42;;;;;;;19.95;8.82;;;;;;;-2.63;80.33;99627.13;5099464;28;20638;-54
2022/12/21 08:27:08;;;;;;;22.65;8.40;;;;;;;-2.56;80.41;99635.69;5094939;28;20051;-55
2022/12/21 08:29:34;;;;;;;13.73;6.57;;;;;;;-2.61;79.96;99615.28;5100537;28;20080;-51
2022/12/21 08:32:00;;;;;;;19.40;7.60;;;;;;;-2.58;80.28;99642.47;5095631;28;20040;-53
2022/12/21 08:34:26;;;;;;;18.73;6.55;;;;;;;-2.68;79.98;99630.41;5075936;28;20048;-53
2022/12/21 08:36:52;;;;;;;19.23;7.45;;;;;;;-2.62;80.22;99635.63;5099944;28;20572;-50
2022/12/21 08:39:18;;;;;;;19.75;7.65;;;;;;;-2.85;80.21;99598.72;5096978;28;20031;-49
2022/12/21 08:41:44;;;;;;;20.80;8.77;;;;;;;-2.73;80.23;99619.31;5094481;28;20088;-54
2022/12/21 08:44:10;;;;;;;19.05;8.32;;;;;;;-2.68;80.09;99640.59;5099510;28;20118;-50
2022/12/21 08:46:36;;;;;;;21.80;8.90;;;;;;;-2.77;80.23;99625.16;5094070;28;20135;-51
2022/12/21 08:49:02;;;;;;;22.55;9.88;;;;;;;-2.84;80.86;99631.84;5097039;28;20536;-53
2022/12/21 08:51:28;;;;;;;30.23;9.70;;;;;;;-2.90;80.90;99626.63;5076487;28;21847;-48
2022/12/21 08:53:54;;;;;;;18.17;7.63;;;;;;;-3.27;81.27;99564.06;5090144;28;20130;-50
2022/12/21 08:56:20;;;;;;;20.55;9.23;;;;;;;-3.11;81.79;99614.38;5097052;28;20518;-49
2022/12/21 08:58:47;;;;;;;23.05;9.70;;;;;;;-2.92;82.14;99642.69;5095941;28;20149;-51
2022/12/21 09:01:18;;;;;;;24.70;10.63;;;;;;;-2.88;82.05;99644.47;5110458;27;20725;-49
2022/12/21 09:03:43;;;;;;;26.08;9.48;;;;;;;-3.07;81.99;99600.03;5093573;28;20459;-53
2022/12/21 09:06:09;;;;;;;28.10;10.85;;;;;;;-3.06;81.92;99600.06;5092603;28;20040;-50
2022/12/21 09:08:36;;;;;;;13.18;6.53;;;;;;;-2.88;81.92;99647.03;5098592;28;20040;-51
2022/12/21 09:11:02;;;;;;;18.85;8.43;;;;;;;-3.10;82.28;99638.97;5093882;28;20070;-51
2022/12/21 09:13:29;;;;;;;19.27;7.65;;;;;;;-3.18;82.39;99643.03;5099198;28;20040;-51
2022/12/21 09:15:55;;;;;;;14.35;7.07;;;;;;;-3.21;82.85;99637.91;5086276;28;20113;-47
2022/12/21 09:18:21;;;;;;;11.80;4.40;;;;;;;-3.25;82.87;99628.53;5090568;28;20032;-50
2022/12/21 09:20:47;;;;;;;17.42;7.75;;;;;;;-3.28;83.42;99630.97;5078769;28;20112;-50
2022/12/21 09:23:13;;;;;;;16.38;7.60;;;;;;;-3.30;83.40;99627.56;5090756;28;20040;-52
2022/12/21 09:25:39;;;;;;;17.83;7.03;;;;;;;-3.28;83.46;99625.03;5094816;28;20036;-51
2022/12/21 09:28:05;;;;;;;12.10;5.57;;;;;;;-3.30;83.79;99617.41;5095950;28;20040;-51
2022/12/21 09:30:31;;;;;;;18.33;8.23;;;;;;;-3.30;83.62;99608.91;5095550;28;20051;-50
2022/12/21 09:32:57;;;;;;;15.50;7.20;;;;;;;-3.20;83.53;99614.22;5093367;28;20517;-50
2022/12/21 09:35:23;;;;;;;13.85;7.15;;;;;;;-3.24;83.62;99611.56;5095199;28;20039;-55
2022/12/21 09:37:50;;;;;;;22.75;8.27;;;;;;;-3.24;83.83;99606.47;5093176;28;20421;-53
2022/12/21 09:40:17;;;;;;;17.70;7.43;;;;;;;-3.12;83.90;99606.72;5095772;28;20112;-53
2022/12/21 09:43:11;;;;;;;17.10;7.85;;;;;;;-3.11;83.75;99608.44;5109804;27;20511;-56
2022/12/21 09:45:48;;;;;;;19.73;8.63;;;;;;;-3.29;83.82;99610.59;5096998;28;20589;-53
2022/12/21 09:48:20;;;;;;;19.15;9.23;;;;;;;-3.27;84.21;99598.81;5104613;27;20040;-52
2022/12/21 09:50:50;;;;;;;20.88;9.48;;;;;;;-3.16;83.92;99598.19;5090837;28;20447;-52
2022/12/21 09:53:25;;;;;;;16.23;7.80;;;;;;;-3.14;84.12;99586.34;5092928;28;20537;-52
2022/12/21 09:55:53;;;;;;;19.98;8.27;;;;;;;-3.25;84.16;99589.53;5096966;28;20051;-51
2022/12/21 09:58:22;;;;;;;17.55;7.43;;;;;;;-3.27;84.44;99596.25;5091251;28;20049;-48
2022/12/21 10:00:53;;;;;;;14.88;6.03;;;;;;;-3.35;84.40;99588.50;5090062;28;20051;-51
2022/12/21 10:03:34;;;;;;;17.58;9.00;;;;;;;-3.38;84.62;99554.53;5084146;28;20043;-48
2022/12/21 10:06:06;;;;;;;17.30;7.88;;;;;;;-3.21;84.47;99578.59;5087103;28;20069;-49
2022/12/21 10:08:53;;;;;;;17.17;7.80;;;;;;;-3.24;84.81;99568.34;5084944;28;20036;-55
2022/12/21 10:11:57;;;;;;;16.88;8.15;;;;;;;-3.18;84.49;99565.91;5091253;28;20027;-53
2022/12/21 10:14:57;;;;;;;18.63;8.80;;;;;;;-3.14;84.68;99566.00;5094903;28;20044;-53
2022/12/21 10:17:23;;;;;;;12.50;6.30;;;;;;;-3.14;84.79;99582.97;5105877;27;20595;-50
2022/12/21 10:20:24;;;;;;;19.40;9.63;;;;;;;-3.17;84.88;99571.03;5094056;28;20052;-52
2022/12/21 10:22:54;;;;;;;19.38;8.40;;;;;;;-3.33;84.92;99542.75;5090830;28;20047;-52
2022/12/21 10:25:21;;;;;;;20.92;9.75;;;;;;;-3.17;84.41;99562.56;5117513;27;20043;-59
2022/12/21 10:27:54;;;;;;;19.73;8.05;;;;;;;-3.17;85.05;99560.88;5098420;28;20040;-50
2022/12/21 10:30:20;;;;;;;17.45;7.55;;;;;;;-3.20;84.70;99563.38;5102241;28;20457;-51
2022/12/21 10:32:50;;;;;;;15.30;7.47;;;;;;;-3.17;84.75;99557.47;5087184;28;20101;-49
2022/12/21 10:35:38;;;;;;;9.25;4.30;;;;;;;-3.17;84.58;99543.06;5094457;28;20450;-54
2022/12/21 10:38:23;;;;;;;17.08;7.78;;;;;;;-3.25;85.09;99546.31;5102292;28;20035;-51
2022/12/21 10:40:54;;;;;;;11.75;6.68;;;;;;;-3.46;84.90;99526.44;5109393;28;20064;-55
2022/12/21 10:43:20;;;;;;;15.48;8.07;;;;;;;-3.29;85.39;99550.47;5095967;28;20040;-49
2022/12/21 10:45:46;;;;;;;13.43;6.07;;;;;;;-3.26;85.33;99536.97;5097389;28;20044;-52
2022/12/21 10:48:12;;;;;;;17.80;7.90;;;;;;;-3.24;85.36;99528.53;5074701;28;20041;-51
2022/12/21 10:50:40;;;;;;;10.13;4.78;;;;;;;-3.42;85.21;99512.97;5072684;28;20044;-54
2022/12/21 10:53:24;;;;;;;11.52;6.10;;;;;;;-3.35;85.81;99536.81;5078148;28;20538;-53
2022/12/21 10:56:01;;;;;;;20.67;8.35;;;;;;;-3.30;85.89;99535.22;5098437;28;20046;-52
2022/12/21 10:58:29;;;;;;;19.27;8.75;;;;;;;-3.19;85.95;99534.56;5093317;28;20052;-53
2022/12/21 11:01:03;;;;;;;16.10;7.82;;;;;;;-3.26;85.88;99503.94;5097063;28;20423;-51
2022/12/21 11:03:29;;;;;;;8.90;3.97;;;;;;;-3.12;85.15;99536.38;5096259;28;20058;-52
2022/12/21 11:05:56;;;;;;;16.27;8.20;;;;;;;-3.42;85.37;99505.34;5079671;28;20043;-52
2022/12/21 11:08:30;;;;;;;8.60;5.25;;;;;;;-3.32;85.87;99526.69;5085936;28;20051;-51
2022/12/21 11:11:01;;;;;;;10.93;5.38;;;;;;;-3.39;86.04;99525.72;5092978;28;20502;-52
2022/12/21 11:13:32;;;;;;;9.32;4.85;;;;;;;-3.33;86.44;99542.75;5093582;28;20514;-51
2022/12/21 11:16:07;;;;;;;14.02;6.32;;;;;;;-3.35;86.77;99519.88;5111177;27;20063;-54
2022/12/21 11:18:35;;;;;;;17.67;7.82;;;;;;;-3.28;86.83;99520.81;5097502;28;20512;-53
2022/12/21 11:21:04;;;;;;;17.20;8.30;;;;;;;-3.41;86.51;99489.28;5096656;28;20055;-49
2022/12/21 11:23:30;;;;;;;16.52;6.03;;;;;;;-3.36;86.30;99499.50;5096748;28;20031;-55
2022/12/21 11:25:56;;;;;;;14.18;6.75;;;;;;;-3.24;86.08;99528.53;5114516;27;20519;-53
2022/12/21 11:28:22;;;;;;;15.45;6.82;;;;;;;-3.24;86.53;99526.00;5096561;28;20050;-52
2022/12/21 11:30:59;;;;;;;15.98;7.03;;;;;;;-3.24;86.46;99535.28;5095259;28;20070;-52
2022/12/21 11:33:25;;;;;;;16.52;8.13;;;;;;;-3.25;86.89;99521.75;5090279;28;20094;-54
2022/12/21 11:36:14;;;;;;;22.70;7.90;;;;;;;-3.13;87.14;99519.41;5098679;28;20371;-55
2022/12/21 11:38:41;;;;;;;11.90;6.10;;;;;;;-3.08;86.81;99524.56;5060101;28;20056;-51
2022/12/21 11:41:27;;;;;;;13.20;6.30;;;;;;;-3.13;86.90;99518.56;5076401;28;20115;-57
2022/12/21 11:43:54;;;;;;;15.18;7.75;;;;;;;-3.25;86.93;99481.09;5079124;28;20043;-53
2022/12/21 11:46:25;;;;;;;17.13;7.32;;;;;;;-3.06;86.57;99516.16;5092379;28;20036;-55
2022/12/21 11:49:46;;;;;;;9.48;4.10;;;;;;;-3.08;86.91;99512.72;5099959;28;20537;-52
2022/12/21 11:52:23;;;;;;;5.88;3.38;;;;;;;-3.08;86.67;99489.84;5032519;28;20427;-53
2022/12/21 11:55:06;;;;;;;10.30;4.95;;;;;;;-3.26;86.96;99456.50;5097192;28;20575;-55